Time;durP1;ratioP1;P1;durP2;ratioP2;P2;SDS_P1;SDS_P2;PMS_P1;PMS_P2;Temp;Humidity;BMP_temperature;BMP_pressure;BME280_temperature;BME280_humidity;BME280_pressure;Samples;Min_cycle;Max_cycle;Signal;HPM_P1;HPM_P2
2023/02/19 00:00:18;;;;;;;3.67;3.00;;;;;;;10.53;100.00;154062.66;4965410;28;20532;-79
2023/02/19 00:02:47;;;;;;;4.10;3.23;;;;;;;10.54;100.00;154066.53;4969601;28;20490;-78
2023/02/19 00:05:14;;;;;;;3.30;3.00;;;;;;;10.54;100.00;154065.28;4953008;28;20479;-79
2023/02/19 00:07:42;;;;;;;4.27;3.30;;;;;;;10.53;100.00;154062.66;4951116;28;20458;-78
2023/02/19 00:10:10;;;;;;;3.47;3.17;;;;;;;10.50;100.00;154056.19;4953771;28;20458;-79
2023/02/19 00:12:36;;;;;;;3.20;2.70;;;;;;;10.50;100.00;154056.19;4969915;28;20590;-79
2023/02/19 00:15:03;;;;;;;4.20;3.30;;;;;;;10.51;100.00;154057.50;4969947;28;20543;-78
2023/02/19 00:17:31;;;;;;;3.40;2.63;;;;;;;10.48;100.00;154049.72;4978001;28;20481;-78
2023/02/19 00:19:57;;;;;;;3.23;2.60;;;;;;;10.50;100.00;154056.19;4961716;28;20550;-78
2023/02/19 00:22:24;;;;;;;4.07;3.30;;;;;;;10.52;100.00;154061.34;4954997;28;21013;-78
2023/02/19 00:24:51;;;;;;;2.70;2.50;;;;;;;10.47;100.00;154047.13;4966630;28;20586;-79
2023/02/19 00:27:19;;;;;;;9.33;3.60;;;;;;;10.49;100.00;154052.28;4945628;28;20494;-78
2023/02/19 00:29:45;;;;;;;2.83;2.50;;;;;;;10.49;100.00;154053.59;4970755;28;20455;-79
2023/02/19 00:32:12;;;;;;;3.60;2.93;;;;;;;10.47;100.00;154048.41;4977556;28;20463;-78
2023/02/19 00:34:39;;;;;;;2.77;2.43;;;;;;;10.46;100.00;154045.81;4963659;28;20562;-79
2023/02/19 00:37:06;;;;;;;3.30;3.00;;;;;;;10.53;100.00;154062.66;4954693;28;20482;-79
2023/02/19 00:39:33;;;;;;;3.10;2.70;;;;;;;10.49;100.00;154052.28;4953947;28;20451;-79
2023/02/19 00:41:59;;;;;;;2.80;2.40;;;;;;;10.45;100.00;154043.25;4962244;28;20970;-79
2023/02/19 00:44:27;;;;;;;3.40;2.30;;;;;;;10.51;100.00;154058.75;4974193;28;20474;-78
2023/02/19 00:46:54;;;;;;;3.80;2.60;;;;;;;10.49;98.98;154052.28;4958410;28;20455;-79
2023/02/19 00:49:22;;;;;;;2.90;2.23;;;;;;;10.50;100.00;154054.88;4968806;28;20454;-79
2023/02/19 00:51:50;;;;;;;2.50;2.30;;;;;;;10.56;100.00;154071.75;4954882;28;20467;-78
2023/02/19 00:54:17;;;;;;;2.77;2.47;;;;;;;10.52;100.00;154061.34;4981942;28;20438;-78
2023/02/19 00:56:44;;;;;;;2.27;1.80;;;;;;;10.51;100.00;154058.75;4964290;28;20433;-79
2023/02/19 00:59:11;;;;;;;2.60;2.40;;;;;;;10.46;100.00;154045.81;4950150;28;20442;-79
2023/02/19 01:01:39;;;;;;;3.00;2.53;;;;;;;10.47;100.00;154048.41;4939069;28;20451;-79
2023/02/19 01:04:06;;;;;;;3.13;2.20;;;;;;;10.44;99.97;154040.63;4958522;28;20557;-79
2023/02/19 01:06:33;;;;;;;2.50;2.10;;;;;;;10.43;100.00;154038.09;4950063;28;20538;-79
2023/02/19 01:09:00;;;;;;;3.07;2.77;;;;;;;10.43;100.00;154038.09;4945131;28;20451;-78
2023/02/19 01:11:27;;;;;;;2.27;1.80;;;;;;;10.37;100.00;154023.84;4970634;28;20440;-79
2023/02/19 01:13:57;;;;;;;2.73;2.30;;;;;;;10.40;100.00;154030.31;4956526;28;20486;-79
2023/02/19 01:16:24;;;;;;;2.30;2.07;;;;;;;10.45;100.00;154043.25;4958557;28;20547;-79
2023/02/19 01:18:52;;;;;;;2.33;1.93;;;;;;;10.40;100.00;154030.31;4957856;28;20805;-79
2023/02/19 01:21:20;;;;;;;3.00;1.97;;;;;;;10.44;97.99;154040.63;4968174;28;20442;-79
2023/02/19 01:23:47;;;;;;;2.00;1.80;;;;;;;10.45;99.70;154043.25;4959554;28;20471;-78
2023/02/19 01:26:15;;;;;;;2.33;1.90;;;;;;;10.40;98.53;154030.31;4959708;28;20447;-78
2023/02/19 01:28:42;;;;;;;2.13;1.77;;;;;;;10.41;98.46;154032.88;4973919;28;20462;-78
2023/02/19 01:31:12;;;;;;;3.53;2.00;;;;;;;10.38;100.00;154025.09;4955580;28;20786;-78
2023/02/19 01:33:39;;;;;;;3.23;2.60;;;;;;;10.36;99.66;154019.94;4966556;28;21011;-78
2023/02/19 01:36:08;;;;;;;3.70;2.07;;;;;;;10.34;100.00;154014.75;4957465;28;20527;-79
2023/02/19 01:38:35;;;;;;;5.00;2.50;;;;;;;10.38;98.75;154026.41;4960405;28;20530;-78
2023/02/19 01:41:04;;;;;;;2.60;2.40;;;;;;;10.37;99.27;154022.53;4964102;28;20442;-78
2023/02/19 01:43:32;;;;;;;2.73;2.07;;;;;;;10.37;100.00;154022.53;4968316;28;20550;-79
2023/02/19 01:45:59;;;;;;;2.57;2.37;;;;;;;10.30;100.00;154005.69;4976940;28;20521;-78
2023/02/19 01:48:28;;;;;;;3.80;2.50;;;;;;;10.32;100.00;154009.59;4975778;28;20451;-78
2023/02/19 01:50:59;;;;;;;2.43;2.10;;;;;;;10.33;100.00;154012.16;4974827;28;20452;-79
2023/02/19 01:53:30;;;;;;;2.43;1.83;;;;;;;10.27;100.00;153996.66;4957458;28;20800;-78
2023/02/19 01:55:58;;;;;;;2.50;2.27;;;;;;;10.27;100.00;153996.66;4973518;28;20529;-79
2023/02/19 01:58:26;;;;;;;2.53;1.90;;;;;;;10.26;100.00;153995.34;4953368;28;20482;-79
2023/02/19 02:00:53;;;;;;;4.70;2.20;;;;;;;10.23;100.00;153987.56;4952950;28;20559;-79
2023/02/19 02:03:19;;;;;;;2.43;2.03;;;;;;;10.26;100.00;153994.03;4977059;28;20491;-79
2023/02/19 02:05:52;;;;;;;3.60;2.23;;;;;;;10.28;100.00;153999.22;4971614;28;20463;-79
2023/02/19 02:11:05;;;;;;;2.60;2.40;;;;;;;10.22;100.00;153984.97;4955445;28;20632;-79
2023/02/19 02:13:33;;;;;;;2.73;2.37;;;;;;;10.19;100.00;153975.94;4971663;28;20562;-79
2023/02/19 02:16:06;;;;;;;2.60;2.40;;;;;;;10.16;100.00;153968.16;4948728;28;20980;-79
2023/02/19 02:18:40;;;;;;;3.47;2.37;;;;;;;10.19;100.00;153975.94;4968590;28;20818;-79
2023/02/19 02:21:32;;;;;;;3.17;2.57;;;;;;;10.17;100.00;153970.72;4964594;28;20884;-79
2023/02/19 02:24:12;;;;;;;2.97;2.70;;;;;;;10.16;100.00;153969.47;4961603;28;20719;-79
2023/02/19 02:27:02;;;;;;;3.63;2.50;;;;;;;10.07;100.00;153944.81;4957866;28;20844;-79
2023/02/19 02:30:16;;;;;;;3.07;2.53;;;;;;;10.08;100.00;153948.72;4953211;28;20465;-79
2023/02/19 02:32:52;;;;;;;2.87;2.67;;;;;;;10.06;100.00;153942.25;4937229;28;20466;-79
2023/02/19 02:35:22;;;;;;;2.40;2.13;;;;;;;10.00;100.00;153926.69;4968981;28;20462;-79
2023/02/19 02:37:51;;;;;;;2.73;2.50;;;;;;;10.03;100.00;153935.78;4945299;28;20468;-79
2023/02/19 02:40:18;;;;;;;2.93;2.63;;;;;;;10.00;100.00;153926.69;4960031;28;20522;-79
2023/02/19 02:42:45;;;;;;;3.13;2.80;;;;;;;9.95;100.00;153915.06;4957538;28;20878;-79
2023/02/19 02:45:38;;;;;;;3.20;2.43;;;;;;;9.93;100.00;153908.59;4977166;28;20481;-79
2023/02/19 02:48:20;;;;;;;3.10;2.80;;;;;;;9.94;100.00;153911.16;4953354;28;20553;-79
2023/02/19 02:50:50;;;;;;;3.20;2.90;;;;;;;9.94;100.00;153911.16;4963446;28;20446;-79
2023/02/19 02:56:06;;;;;;;3.37;2.37;;;;;;;9.90;100.00;153902.06;4968572;28;20440;-79
2023/02/19 02:58:35;;;;;;;2.67;2.40;;;;;;;9.88;100.00;153895.59;4957352;28;20588;-79
2023/02/19 03:03:56;;;;;;;2.77;2.37;;;;;;;9.90;100.00;153900.81;4946843;28;20888;-79
2023/02/19 03:06:28;;;;;;;3.10;2.60;;;;;;;9.88;100.00;153895.59;4961561;28;20617;-79
2023/02/19 03:08:57;;;;;;;2.40;2.20;;;;;;;9.88;100.00;153895.59;4961761;28;20993;-79
2023/02/19 03:19:49;;;;;;;2.63;2.43;;;;;;;9.85;100.00;153889.16;4972558;28;20513;-79
2023/02/19 03:22:19;;;;;;;4.00;2.60;;;;;;;9.84;100.00;153885.28;4938963;28;20443;-79
2023/02/19 03:27:35;;;;;;;3.10;2.33;;;;;;;9.66;100.00;153841.25;4939149;28;20830;-80
2023/02/19 03:30:07;;;;;;;2.27;1.90;;;;;;;9.59;100.00;153821.88;4938328;28;20829;-80
2023/02/19 03:32:39;;;;;;;2.80;2.47;;;;;;;9.58;100.00;153820.56;4980102;28;20798;-80
2023/02/19 03:35:12;;;;;;;2.97;2.53;;;;;;;9.55;100.00;153812.84;4967668;28;20459;-80
2023/02/19 03:37:43;;;;;;;2.73;2.37;;;;;;;9.52;100.00;153803.78;4981053;28;20459;-80
2023/02/19 03:40:10;;;;;;;2.90;2.60;;;;;;;9.48;100.00;153794.69;4964915;28;20447;-80
2023/02/19 03:42:42;;;;;;;2.47;2.27;;;;;;;9.47;100.00;153790.84;4959582;28;21042;-80
2023/02/19 03:45:29;;;;;;;3.27;2.60;;;;;;;9.48;100.00;153794.69;4963243;28;20466;-80
2023/02/19 03:48:05;;;;;;;2.47;2.10;;;;;;;9.51;100.00;153802.47;4962692;28;20489;-80
2023/02/19 03:50:40;;;;;;;2.90;2.60;;;;;;;9.49;100.00;153797.31;4976560;28;20454;-80
2023/02/19 03:53:11;;;;;;;2.50;1.97;;;;;;;9.45;100.00;153785.69;4962111;28;20453;-80
2023/02/19 03:55:44;;;;;;;3.13;2.43;;;;;;;9.45;100.00;153786.94;4970419;28;20938;-80
2023/02/19 03:58:14;;;;;;;3.13;2.20;;;;;;;9.40;100.00;153772.75;4950440;28;20990;-80
2023/02/19 04:00:47;;;;;;;2.17;1.90;;;;;;;9.37;100.00;153764.97;4960437;28;20972;-80
2023/02/19 04:03:18;;;;;;;2.30;2.10;;;;;;;9.32;100.00;153753.31;4945566;28;20456;-80
2023/02/19 04:05:49;;;;;;;2.30;1.77;;;;;;;9.33;100.00;153755.91;4954020;28;20479;-80
2023/02/19 04:08:18;;;;;;;2.97;2.30;;;;;;;9.31;100.00;153749.44;4947732;28;20462;-80
2023/02/19 04:10:50;;;;;;;2.13;1.93;;;;;;;9.31;100.00;153750.75;4951694;28;20459;-80
2023/02/19 04:13:21;;;;;;;1.83;1.70;;;;;;;9.28;100.00;153741.69;4959050;28;20717;-80
2023/02/19 04:15:50;;;;;;;2.33;1.63;;;;;;;9.29;100.00;153745.59;4960980;28;20468;-80
2023/02/19 04:18:18;;;;;;;1.90;1.57;;;;;;;9.30;100.00;153746.84;4978082;28;20553;-80
2023/02/19 04:20:47;;;;;;;1.30;1.10;;;;;;;9.32;100.00;153752.03;4971513;28;20793;-80
2023/02/19 04:23:17;;;;;;;1.90;1.33;;;;;;;9.25;100.00;153735.22;4961267;28;20457;-80
2023/02/19 04:25:45;;;;;;;1.90;1.40;;;;;;;9.32;100.00;153752.03;4970059;28;20655;-80
2023/02/19 04:28:15;;;;;;;2.13;1.20;;;;;;;9.29;100.00;153745.59;4953781;28;20446;-80
2023/02/19 04:30:42;;;;;;;1.10;1.00;;;;;;;9.27;100.00;153739.06;4986461;28;20547;-80
2023/02/19 04:33:08;;;;;;;1.27;1.00;;;;;;;9.30;100.00;153748.13;4963063;28;20459;-80
2023/02/19 04:35:35;;;;;;;1.50;1.00;;;;;;;9.23;100.00;153730.03;4956275;28;20597;-80
2023/02/19 04:38:03;;;;;;;1.30;1.10;;;;;;;9.27;100.00;153740.38;4951957;28;20469;-80
2023/02/19 04:40:30;;;;;;;1.17;0.97;;;;;;;9.22;100.00;153727.44;4953201;28;20559;-80
2023/02/19 04:42:56;;;;;;;1.30;1.00;;;;;;;9.24;100.00;153732.59;4962291;28;20485;-80
2023/02/19 04:45:23;;;;;;;1.43;0.90;;;;;;;9.26;100.00;153737.81;4971592;28;20482;-80
2023/02/19 04:47:50;;;;;;;1.17;0.70;;;;;;;9.18;100.00;153718.41;4967728;28;20541;-80
2023/02/19 04:50:17;;;;;;;1.40;0.70;;;;;;;9.21;100.00;153723.59;4981460;28;21092;-80
2023/02/19 04:52:43;;;;;;;1.73;1.00;;;;;;;9.19;100.00;153719.69;4958696;28;20533;-80
2023/02/19 04:55:11;;;;;;;1.10;0.60;;;;;;;9.17;100.00;153715.81;4951398;28;20462;-80
2023/02/19 04:57:38;;;;;;;1.10;0.87;;;;;;;9.15;100.00;153709.34;4956411;28;20944;-80
2023/02/19 05:00:07;;;;;;;1.37;0.97;;;;;;;9.17;100.00;153714.50;4950201;28;20573;-80
2023/02/19 05:02:33;;;;;;;1.63;0.83;;;;;;;9.16;100.00;153711.91;4954644;28;20454;-80
2023/02/19 05:05:00;;;;;;;1.23;0.87;;;;;;;9.19;100.00;153720.97;4949504;28;20477;-80
2023/02/19 05:07:26;;;;;;;1.00;0.40;;;;;;;9.16;100.00;153711.91;4964400;28;20460;-80
2023/02/19 05:09:53;;;;;;;0.90;0.60;;;;;;;9.18;100.00;153718.41;4972240;28;20474;-80
2023/02/19 05:12:21;;;;;;;0.70;0.40;;;;;;;9.10;100.00;153697.72;4951404;28;20468;-80
2023/02/19 05:14:48;;;;;;;0.80;0.47;;;;;;;9.06;100.00;153686.06;4954455;28;20490;-80
2023/02/19 05:17:15;;;;;;;0.90;0.50;;;;;;;9.09;100.00;153693.81;4956764;28;20463;-80
2023/02/19 05:19:42;;;;;;;1.53;0.53;;;;;;;9.06;100.00;153686.06;4970997;28;20907;-80
2023/02/19 05:22:08;;;;;;;0.93;0.50;;;;;;;9.12;100.00;153701.59;4972783;28;20538;-80
2023/02/19 05:24:35;;;;;;;0.80;0.40;;;;;;;9.16;100.00;153711.91;4973724;28;20457;-80
2023/02/19 05:27:02;;;;;;;1.00;0.47;;;;;;;9.18;100.00;153717.13;4959797;28;20467;-80
2023/02/19 05:29:30;;;;;;;0.80;0.33;;;;;;;9.12;100.00;153702.88;4964545;28;20455;-80
2023/02/19 05:31:57;;;;;;;0.80;0.40;;;;;;;9.12;100.00;153701.59;4934348;28;20537;-80
2023/02/19 05:34:24;;;;;;;0.70;0.30;;;;;;;9.09;100.00;153695.13;4970998;28;20455;-80
2023/02/19 05:36:50;;;;;;;0.83;0.40;;;;;;;9.09;100.00;153693.81;4973739;28;21047;-80
2023/02/19 05:39:17;;;;;;;0.70;0.30;;;;;;;9.11;100.00;153698.97;4966754;28;20934;-80
2023/02/19 05:41:44;;;;;;;1.10;0.40;;;;;;;9.08;100.00;153692.50;4963608;28;20813;-81
2023/02/19 05:44:11;;;;;;;0.90;0.50;;;;;;;9.09;100.00;153693.81;4975209;28;20489;-79
2023/02/19 05:46:39;;;;;;;0.63;0.30;;;;;;;9.11;100.00;153698.97;4951208;28;20475;-80
2023/02/19 05:49:06;;;;;;;0.70;0.30;;;;;;;9.13;100.00;153704.19;4955528;28;20534;-80
2023/02/19 05:51:32;;;;;;;0.70;0.30;;;;;;;9.16;100.00;153713.22;4943283;28;20447;-79
2023/02/19 05:53:59;;;;;;;0.70;0.30;;;;;;;9.13;100.00;153704.19;4966486;28;20489;-80
2023/02/19 05:56:36;;;;;;;0.70;0.30;;;;;;;9.09;100.00;153693.81;4958868;28;20451;-79
2023/02/19 05:59:06;;;;;;;0.70;0.30;;;;;;;9.10;100.00;153697.72;4960252;28;20443;-80
2023/02/19 06:01:34;;;;;;;0.70;0.23;;;;;;;9.06;100.00;153687.34;4969601;28;20970;-80
2023/02/19 06:04:02;;;;;;;0.80;0.30;;;;;;;9.12;100.00;153701.59;4953350;28;20454;-79
2023/02/19 06:06:28;;;;;;;0.70;0.20;;;;;;;9.10;100.00;153697.72;4965607;28;20473;-79
2023/02/19 06:08:55;;;;;;;0.60;0.20;;;;;;;9.08;100.00;153691.25;4963873;28;20462;-80
2023/02/19 06:11:22;;;;;;;0.80;0.30;;;;;;;9.09;100.00;153693.81;4963206;28;20748;-80
2023/02/19 06:13:50;;;;;;;0.60;0.20;;;;;;;9.08;100.00;153691.25;4966675;28;21118;-80
2023/02/19 06:16:17;;;;;;;1.53;0.50;;;;;;;9.07;100.00;153689.97;4951084;28;20467;-80
2023/02/19 06:18:44;;;;;;;0.70;0.33;;;;;;;9.02;100.00;153675.72;4957929;28;20455;-84
2023/02/19 06:21:12;;;;;;;0.90;0.43;;;;;;;8.98;100.00;153665.34;4953188;28;20478;-86
2023/02/19 06:23:39;;;;;;;1.70;0.30;;;;;;;8.97;100.00;153662.81;4952221;28;20459;-86
2023/02/19 06:26:08;;;;;;;0.70;0.27;;;;;;;8.94;100.00;153655.03;4968553;28;20574;-85
2023/02/19 06:28:34;;;;;;;0.70;0.20;;;;;;;8.92;100.00;153649.88;4967700;28;20455;-85
2023/02/19 06:31:01;;;;;;;0.60;0.20;;;;;;;8.86;100.00;153634.34;4952216;28;20461;-86
2023/02/19 06:33:28;;;;;;;0.80;0.30;;;;;;;8.80;100.00;153618.81;4956818;28;20477;-85
2023/02/19 06:35:58;;;;;;;0.60;0.20;;;;;;;8.84;100.00;153629.19;4951731;28;20474;-85
2023/02/19 06:38:27;;;;;;;0.70;0.30;;;;;;;8.83;100.00;153626.59;4951423;28;20458;-84
2023/02/19 06:40:53;;;;;;;0.67;0.30;;;;;;;8.75;100.00;153607.19;4950522;28;20502;-85
2023/02/19 06:43:20;;;;;;;1.37;0.30;;;;;;;8.74;100.00;153603.28;4952505;28;20459;-84
2023/02/19 06:45:47;;;;;;;0.70;0.20;;;;;;;8.75;100.00;153605.91;4953924;28;20614;-83
2023/02/19 06:48:13;;;;;;;0.70;0.30;;;;;;;8.71;100.00;153596.81;4960367;28;20542;-84
2023/02/19 06:50:40;;;;;;;0.80;0.30;;;;;;;8.71;100.00;153595.56;4951516;28;20485;-84
2023/02/19 06:53:10;;;;;;;1.07;0.70;;;;;;;8.72;100.00;153598.13;4945635;28;20470;-83
2023/02/19 06:55:39;;;;;;;1.33;0.33;;;;;;;8.70;100.00;153594.28;4962770;28;20455;-85
2023/02/19 06:58:06;;;;;;;1.30;0.50;;;;;;;8.69;100.00;153590.38;4934241;28;20443;-85
2023/02/19 07:00:33;;;;;;;0.83;0.53;;;;;;;8.73;100.00;153600.72;4950411;28;20471;-83
2023/02/19 07:02:59;;;;;;;1.33;0.70;;;;;;;8.70;100.00;153592.97;4950357;28;20460;-83
2023/02/19 07:05:26;;;;;;;0.90;0.50;;;;;;;8.71;100.00;153595.56;4952570;28;20559;-84
2023/02/19 07:07:53;;;;;;;1.20;0.60;;;;;;;8.73;100.00;153600.72;4970135;28;20894;-85
2023/02/19 07:10:19;;;;;;;1.40;0.77;;;;;;;8.76;100.00;153609.81;4960486;28;20556;-85
2023/02/19 07:12:47;;;;;;;1.10;0.80;;;;;;;8.76;100.00;153608.50;4947762;28;20469;-85
2023/02/19 07:15:14;;;;;;;1.00;0.70;;;;;;;8.74;100.00;153603.28;4962127;28;20538;-85
2023/02/19 07:17:41;;;;;;;1.40;1.00;;;;;;;8.75;100.00;153607.19;4965061;28;20511;-85
2023/02/19 07:20:08;;;;;;;1.10;0.60;;;;;;;8.71;100.00;153596.81;4965067;28;21040;-85
2023/02/19 07:22:35;;;;;;;2.63;0.63;;;;;;;8.72;100.00;153599.44;4965135;28;20461;-85
2023/02/19 07:25:01;;;;;;;1.20;0.73;;;;;;;8.76;100.00;153608.50;4948168;28;20950;-85
2023/02/19 07:27:28;;;;;;;1.20;0.77;;;;;;;8.73;100.00;153600.72;4962595;28;20983;-85
2023/02/19 07:29:56;;;;;;;1.10;0.70;;;;;;;8.70;100.00;153592.97;4962657;28;20455;-85
2023/02/19 07:32:23;;;;;;;1.17;0.80;;;;;;;8.69;100.00;153590.38;4934280;28;20517;-86
2023/02/19 07:34:49;;;;;;;1.30;0.80;;;;;;;8.70;100.00;153592.97;4966793;28;20469;-85
2023/02/19 07:37:16;;;;;;;1.70;1.07;;;;;;;8.71;100.00;153596.81;4959337;28;20799;-85
2023/02/19 07:39:43;;;;;;;1.40;0.90;;;;;;;8.73;100.00;153602.03;4950205;28;20514;-85
2023/02/19 07:42:10;;;;;;;1.57;1.00;;;;;;;8.75;100.00;153605.91;4965624;28;20558;-85
2023/02/19 07:44:37;;;;;;;1.40;1.20;;;;;;;8.71;100.00;153596.81;4952753;28;20483;-85
2023/02/19 07:47:05;;;;;;;1.47;1.00;;;;;;;8.83;100.00;153626.59;4962343;28;20615;-85
2023/02/19 07:49:32;;;;;;;1.10;1.00;;;;;;;8.83;100.00;153626.59;4948864;28;20470;-84
2023/02/19 07:51:59;;;;;;;1.40;0.97;;;;;;;8.82;100.00;153625.28;4946172;28;20681;-85
2023/02/19 07:54:26;;;;;;;2.17;1.10;;;;;;;8.83;100.00;153626.59;4959171;28;20455;-85
2023/02/19 07:56:52;;;;;;;1.90;1.23;;;;;;;8.85;100.00;153631.75;4964023;28;20498;-85
2023/02/19 07:59:20;;;;;;;1.50;0.83;;;;;;;8.87;100.00;153638.22;4951050;28;20855;-85
2023/02/19 08:04:32;;;;;;;1.87;1.00;;;;;;;8.89;100.00;153642.13;4943313;28;20546;-85
2023/02/19 08:06:59;;;;;;;1.17;0.90;;;;;;;8.94;100.00;153655.03;4961874;28;20513;-85
2023/02/19 08:09:26;;;;;;;1.30;0.90;;;;;;;8.93;100.00;153653.72;4947087;28;20567;-85
2023/02/19 08:14:36;;;;;;;1.70;1.27;;;;;;;8.95;98.87;153658.91;4949010;28;20797;-85
2023/02/19 08:17:03;;;;;;;1.60;1.10;;;;;;;8.95;97.55;153657.59;4958111;28;20447;-85
2023/02/19 08:19:31;;;;;;;1.30;1.03;;;;;;;8.95;98.31;153657.59;4948967;28;20468;-85
2023/02/19 08:21:58;;;;;;;1.30;1.00;;;;;;;9.02;97.42;153675.72;4964373;28;20443;-85
2023/02/19 08:24:25;;;;;;;1.60;0.90;;;;;;;9.10;97.89;153697.72;4949329;28;20500;-85
2023/02/19 08:26:52;;;;;;;1.50;1.10;;;;;;;9.08;96.80;153692.50;4950943;28;20502;-85
2023/02/19 08:29:18;;;;;;;2.40;1.10;;;;;;;9.15;97.20;153709.34;4959014;28;20458;-85
2023/02/19 08:31:45;;;;;;;2.07;1.10;;;;;;;9.15;98.15;153710.66;4962329;28;20451;-85
2023/02/19 08:34:12;;;;;;;1.77;1.00;;;;;;;9.18;98.09;153717.13;4960888;28;20463;-85
2023/02/19 08:36:40;;;;;;;1.30;0.70;;;;;;;9.15;100.00;153709.34;4949553;28;20490;-85
2023/02/19 08:39:06;;;;;;;2.10;0.97;;;;;;;9.11;100.00;153698.97;4947338;28;20550;-85
2023/02/19 08:41:33;;;;;;;1.47;0.90;;;;;;;9.07;100.00;153689.97;4932518;28;20455;-85
2023/02/19 08:44:00;;;;;;;1.20;0.70;;;;;;;9.09;100.00;153695.13;4947811;28;20536;-86
2023/02/19 08:46:27;;;;;;;2.90;1.70;;;;;;;9.08;100.00;153691.25;4950962;28;20553;-86
2023/02/19 08:48:53;;;;;;;1.30;1.00;;;;;;;9.08;100.00;153692.50;4947782;28;20799;-85
2023/02/19 08:51:20;;;;;;;0.90;0.63;;;;;;;9.17;100.00;153714.50;4962592;28;20845;-86
2023/02/19 08:53:48;;;;;;;1.97;0.70;;;;;;;9.16;100.00;153713.22;4948006;28;20462;-85
2023/02/19 08:56:16;;;;;;;1.40;0.80;;;;;;;9.13;100.00;153704.19;4941194;28;20525;-85
2023/02/19 08:58:43;;;;;;;1.13;0.77;;;;;;;9.13;100.00;153704.19;4946240;28;20466;-85
2023/02/19 09:01:11;;;;;;;0.90;0.70;;;;;;;9.08;100.00;153692.50;4944614;28;20451;-86
2023/02/19 09:03:38;;;;;;;2.80;1.37;;;;;;;9.09;100.00;153693.81;4959634;28;21377;-85
2023/02/19 09:06:05;;;;;;;1.17;0.67;;;;;;;9.09;100.00;153693.81;4932433;28;20451;-85
2023/02/19 09:08:32;;;;;;;2.10;0.80;;;;;;;9.15;100.00;153709.34;4950449;28;20570;-86
2023/02/19 09:11:02;;;;;;;1.07;0.70;;;;;;;9.12;100.00;153701.59;4943950;28;20451;-85
2023/02/19 09:13:29;;;;;;;1.20;0.80;;;;;;;9.12;99.85;153701.59;4964532;28;20451;-86
2023/02/19 09:15:56;;;;;;;1.60;0.97;;;;;;;9.11;99.84;153698.97;4951319;28;20451;-86
2023/02/19 09:18:23;;;;;;;1.53;0.97;;;;;;;9.14;99.62;153708.03;4959038;28;20447;-86
2023/02/19 09:20:50;;;;;;;1.43;0.93;;;;;;;9.12;100.00;153702.88;4949032;28;20462;-86
2023/02/19 09:23:17;;;;;;;1.57;1.00;;;;;;;9.12;99.39;153701.59;4947736;28;20795;-86
2023/02/19 09:25:43;;;;;;;1.63;1.30;;;;;;;9.18;100.00;153718.41;4948539;28;20862;-86
2023/02/19 09:28:12;;;;;;;2.60;1.17;;;;;;;9.18;97.14;153717.13;4962376;28;20472;-86
2023/02/19 09:30:38;;;;;;;1.20;0.93;;;;;;;9.19;96.96;153720.97;4961134;28;20514;-86
2023/02/19 09:33:05;;;;;;;1.27;0.90;;;;;;;9.18;94.69;153718.41;4962049;28;20539;-85
2023/02/19 09:35:32;;;;;;;1.27;1.07;;;;;;;9.23;95.53;153730.03;4963194;28;20590;-85
2023/02/19 09:37:59;;;;;;;2.20;1.50;;;;;;;9.24;94.78;153731.34;4951823;28;20453;-85
2023/02/19 09:40:26;;;;;;;2.97;1.00;;;;;;;9.30;95.88;153748.13;4958689;28;20809;-85
2023/02/19 09:42:52;;;;;;;2.17;1.27;;;;;;;9.30;94.26;153748.13;4961583;28;20454;-85
2023/02/19 09:45:24;;;;;;;3.27;0.90;;;;;;;9.32;93.45;153752.03;4962519;28;20874;-86
2023/02/19 09:47:53;;;;;;;1.90;1.30;;;;;;;9.34;95.04;153758.50;4953276;28;21171;-86
2023/02/19 09:50:31;;;;;;;2.30;1.73;;;;;;;9.35;93.50;153761.06;4956288;28;20455;-86
2023/02/19 09:53:00;;;;;;;2.33;1.57;;;;;;;9.36;94.63;153763.66;4952036;28;21884;-85
2023/02/19 09:55:31;;;;;;;5.10;1.03;;;;;;;9.46;95.22;153788.22;4964666;28;20459;-85
2023/02/19 09:57:59;;;;;;;2.27;1.27;;;;;;;9.40;92.06;153774.00;4951198;28;20913;-86
2023/02/19 10:00:29;;;;;;;2.77;2.20;;;;;;;9.43;90.00;153781.75;4952327;28;20934;-85
2023/02/19 10:03:03;;;;;;;3.70;1.53;;;;;;;9.44;91.99;153784.38;4959559;28;20455;-86
2023/02/19 10:05:30;;;;;;;1.73;1.13;;;;;;;9.48;88.61;153794.69;4964103;28;20510;-85
2023/02/19 10:07:57;;;;;;;2.10;1.03;;;;;;;9.52;90.13;153803.78;4951781;28;20556;-86
2023/02/19 10:10:28;;;;;;;2.97;1.57;;;;;;;9.54;88.94;153808.94;4962344;28;21013;-86
2023/02/19 10:12:56;;;;;;;4.17;2.43;;;;;;;9.61;89.40;153827.06;4952452;28;20545;-85
2023/02/19 10:15:29;;;;;;;2.70;1.37;;;;;;;9.68;88.38;153846.47;4949633;28;20494;-85
2023/02/19 10:17:56;;;;;;;2.10;1.10;;;;;;;9.80;88.02;153876.22;4944678;28;20453;-86
2023/02/19 10:20:26;;;;;;;1.33;1.00;;;;;;;9.83;91.42;153883.97;4952295;28;20459;-85
2023/02/19 10:22:58;;;;;;;1.47;0.80;;;;;;;9.88;87.59;153895.59;4967502;28;20458;-85
2023/02/19 10:25:25;;;;;;;3.43;1.10;;;;;;;9.92;89.70;153907.28;4965961;28;20542;-85
2023/02/19 10:27:51;;;;;;;2.10;1.10;;;;;;;9.94;88.18;153911.16;4948903;28;20537;-85
2023/02/19 10:30:22;;;;;;;1.43;0.90;;;;;;;9.99;88.57;153924.09;4962193;28;22068;-85
2023/02/19 10:33:02;;;;;;;1.63;0.70;;;;;;;9.99;89.63;153925.38;4965729;28;20450;-84
2023/02/19 10:35:28;;;;;;;1.37;0.83;;;;;;;9.95;89.07;153913.75;4964782;28;20466;-85
2023/02/19 10:37:56;;;;;;;1.43;0.57;;;;;;;10.02;89.28;153931.88;4955110;28;20446;-84
2023/02/19 10:40:24;;;;;;;4.57;0.90;;;;;;;10.05;87.99;153939.63;4953966;28;20958;-85
2023/02/19 10:42:57;;;;;;;2.50;1.07;;;;;;;10.08;88.80;153947.41;4965565;28;20450;-85
2023/02/19 10:45:27;;;;;;;3.23;0.70;;;;;;;10.05;87.99;153939.63;4963123;28;20566;-84
2023/02/19 10:47:57;;;;;;;1.73;0.80;;;;;;;10.10;89.38;153952.56;4961015;28;20843;-84
2023/02/19 10:50:32;;;;;;;1.50;0.87;;;;;;;10.11;87.54;153956.44;4959405;28;20462;-84
2023/02/19 10:53:04;;;;;;;2.77;1.17;;;;;;;10.17;89.85;153972.03;4943727;28;21116;-84
2023/02/19 10:55:40;;;;;;;2.90;0.80;;;;;;;10.25;88.63;153991.44;4961570;28;20531;-84
2023/02/19 10:58:26;;;;;;;2.43;1.00;;;;;;;10.28;88.28;154000.50;4949305;28;20542;-84
2023/02/19 11:01:15;;;;;;;1.83;0.93;;;;;;;10.39;87.31;154027.69;4961315;28;20550;-84
2023/02/19 11:03:47;;;;;;;1.67;0.70;;;;;;;10.45;86.67;154041.94;4943354;28;20466;-85
2023/02/19 11:06:16;;;;;;;1.33;0.73;;;;;;;10.44;84.53;154039.34;4960491;28;20463;-84
2023/02/19 11:08:50;;;;;;;3.33;1.10;;;;;;;10.47;86.63;154048.41;4951110;28;20591;-84
2023/02/19 11:11:41;;;;;;;1.20;0.70;;;;;;;10.50;84.30;154054.88;4944616;28;20538;-84
2023/02/19 11:14:15;;;;;;;2.70;0.90;;;;;;;10.59;84.14;154078.22;4921571;28;20447;-84
2023/02/19 11:16:44;;;;;;;2.13;0.80;;;;;;;10.61;85.09;154083.38;4950289;28;20456;-84
2023/02/19 11:19:24;;;;;;;1.90;1.10;;;;;;;10.65;85.40;154095.03;4934642;28;20811;-85
2023/02/19 11:21:53;;;;;;;2.60;0.93;;;;;;;10.59;83.86;154078.22;4957678;28;20458;-84
2023/02/19 11:24:25;;;;;;;1.20;0.90;;;;;;;10.65;82.22;154093.72;4960416;28;20451;-84
2023/02/19 11:26:51;;;;;;;7.63;1.30;;;;;;;10.60;84.65;154082.06;4964102;28;20465;-84
2023/02/19 11:29:21;;;;;;;2.53;1.13;;;;;;;10.59;82.96;154079.47;4969938;28;20485;-84
2023/02/19 11:31:48;;;;;;;1.97;0.90;;;;;;;10.62;82.71;154087.25;4949874;28;20452;-83
2023/02/19 11:34:29;;;;;;;1.50;0.70;;;;;;;10.65;83.87;154093.72;4951945;28;20486;-85
2023/02/19 11:37:13;;;;;;;1.20;0.80;;;;;;;10.60;82.24;154082.06;4964957;28;20553;-84
2023/02/19 11:39:44;;;;;;;3.13;0.90;;;;;;;10.62;83.79;154087.25;4953055;28;20454;-85
2023/02/19 11:42:31;;;;;;;2.97;1.23;;;;;;;10.62;84.49;154087.25;4962824;28;20463;-84
2023/02/19 11:45:22;;;;;;;3.20;1.00;;;;;;;10.68;84.63;154101.50;4962862;28;20454;-84
2023/02/19 11:48:10;;;;;;;2.80;0.80;;;;;;;10.66;83.24;154097.63;4943705;28;20479;-85
2023/02/19 11:50:46;;;;;;;3.60;0.87;;;;;;;10.67;84.18;154100.19;4963253;28;20452;-85
2023/02/19 11:53:21;;;;;;;1.50;1.07;;;;;;;10.72;82.64;154111.88;4964625;28;20446;-85
2023/02/19 11:55:56;;;;;;;1.80;1.00;;;;;;;10.71;84.41;154109.28;4949880;28;20467;-84
2023/02/19 11:59:03;;;;;;;3.90;1.50;;;;;;;10.68;86.99;154102.78;4951179;28;20446;-85